Time;durP1;ratioP1;P1;durP2;ratioP2;P2;SDS_P1;SDS_P2;PMS_P1;PMS_P2;Temp;Humidity;BMP_temperature;BMP_pressure;BME280_temperature;BME280_humidity;BME280_pressure;Samples;Min_cycle;Max_cycle;Signal;HPM_P1;HPM_P2
2022/08/05 00:01:23;;;;;;;4.70;3.05;;;24.80;60.50;;;;;;5007735;28;20114;-64
2022/08/05 00:03:50;;;;;;;7.82;2.97;;;24.70;61.60;;;;;;5007811;28;20049;-63
2022/08/05 00:06:16;;;;;;;5.53;3.17;;;24.70;60.90;;;;;;5006265;28;20045;-63
2022/08/05 00:08:42;;;;;;;4.80;3.13;;;24.70;61.10;;;;;;5006620;28;20551;-64
2022/08/05 00:11:14;;;;;;;6.50;3.10;;;24.70;61.10;;;;;;5006989;28;20286;-63
2022/08/05 00:13:42;;;;;;;10.50;4.07;;;24.70;61.30;;;;;;5009803;28;20041;-63
2022/08/05 00:16:11;;;;;;;5.47;3.45;;;24.70;61.00;;;;;;5009599;28;20264;-63
2022/08/05 00:18:38;;;;;;;2.95;2.75;;;24.70;61.20;;;;;;5003945;28;20061;-63
2022/08/05 00:21:04;;;;;;;4.63;3.25;;;24.60;61.00;;;;;;5007702;28;20030;-63
2022/08/05 00:23:30;;;;;;;6.70;3.17;;;24.60;61.00;;;;;;5005057;28;20465;-64
2022/08/05 00:25:56;;;;;;;5.00;3.40;;;24.60;61.30;;;;;;5004176;28;20087;-63
2022/08/05 00:28:21;;;;;;;5.97;2.90;;;24.60;61.40;;;;;;5009231;28;20129;-63
2022/08/05 00:30:47;;;;;;;5.85;3.38;;;24.60;61.20;;;;;;5005291;28;20029;-63
2022/08/05 00:33:15;;;;;;;5.47;3.35;;;24.60;61.20;;;;;;5005938;28;20042;-63
2022/08/05 00:35:40;;;;;;;5.30;3.42;;;24.60;61.50;;;;;;5007305;28;20038;-64
2022/08/05 00:38:07;;;;;;;3.85;3.42;;;24.60;61.70;;;;;;5006781;28;20045;-63
2022/08/05 00:40:33;;;;;;;4.35;3.20;;;24.60;61.80;;;;;;5005562;28;20052;-63
2022/08/05 00:43:00;;;;;;;10.43;3.10;;;24.60;61.70;;;;;;5004456;28;20379;-63
2022/08/05 00:45:27;;;;;;;3.35;3.08;;;24.50;61.40;;;;;;5000940;28;20073;-64
2022/08/05 00:47:52;;;;;;;5.05;2.60;;;24.50;61.20;;;;;;5006936;28;20038;-63
2022/08/05 00:50:18;;;;;;;3.10;2.80;;;24.40;61.00;;;;;;5004458;28;20476;-63
2022/08/05 00:52:43;;;;;;;9.27;3.20;;;24.40;61.20;;;;;;5004121;28;20042;-63
2022/08/05 00:55:11;;;;;;;4.78;2.90;;;24.40;61.40;;;;;;5005295;28;20445;-64
2022/08/05 00:57:36;;;;;;;3.00;2.70;;;24.30;61.40;;;;;;5001405;28;20034;-63
2022/08/05 01:00:04;;;;;;;4.90;2.53;;;24.20;61.70;;;;;;5009327;28;20030;-64
2022/08/05 01:02:30;;;;;;;4.00;2.60;;;24.20;61.70;;;;;;4999002;28;20042;-65
2022/08/05 01:04:55;;;;;;;3.25;2.55;;;24.20;61.90;;;;;;5003785;28;20032;-64
2022/08/05 01:07:21;;;;;;;4.60;2.75;;;24.20;62.10;;;;;;5003671;28;20042;-64
2022/08/05 01:09:46;;;;;;;5.75;3.38;;;24.10;62.00;;;;;;5001428;28;20038;-63
2022/08/05 01:12:14;;;;;;;5.60;3.30;;;24.10;62.20;;;;;;5003813;28;20049;-62
2022/08/05 01:14:49;;;;;;;3.20;2.90;;;24.10;62.40;;;;;;5004044;28;20056;-64
2022/08/05 01:17:39;;;;;;;4.45;2.95;;;24.00;62.70;;;;;;5007238;28;20046;-63
2022/08/05 01:20:30;;;;;;;2.95;2.60;;;24.00;63.10;;;;;;5004887;28;20056;-63
2022/08/05 01:23:27;;;;;;;4.57;2.72;;;23.90;63.10;;;;;;4990190;28;20136;-63
2022/08/05 01:26:25;;;;;;;3.92;2.70;;;24.00;63.10;;;;;;5006342;28;20057;-65
2022/08/05 01:28:58;;;;;;;4.25;2.47;;;23.90;62.60;;;;;;5005702;28;20588;-63
2022/08/05 01:31:45;;;;;;;3.03;2.50;;;23.80;62.60;;;;;;5009509;28;20140;-64
2022/08/05 01:34:32;;;;;;;3.78;2.88;;;23.70;63.10;;;;;;5008589;28;20050;-63
2022/08/05 01:37:06;;;;;;;5.28;2.75;;;23.70;62.70;;;;;;5007498;28;20102;-63
2022/08/05 01:39:34;;;;;;;3.67;2.58;;;23.60;63.30;;;;;;5010500;28;20042;-63
2022/08/05 01:42:02;;;;;;;4.00;2.60;;;23.60;62.90;;;;;;5007998;28;20120;-63
2022/08/05 01:44:29;;;;;;;4.43;2.88;;;23.50;63.20;;;;;;5005503;28;20065;-63
2022/08/05 01:46:57;;;;;;;5.50;2.88;;;23.50;63.60;;;;;;5008260;28;20029;-63
2022/08/05 01:49:24;;;;;;;4.63;3.03;;;23.50;64.00;;;;;;5012092;28;20493;-63
2022/08/05 01:51:54;;;;;;;5.25;2.60;;;23.50;63.70;;;;;;5009553;28;20037;-63
2022/08/05 01:54:23;;;;;;;3.33;2.85;;;23.40;63.60;;;;;;5010654;28;20036;-63
2022/08/05 01:56:50;;;;;;;4.10;2.70;;;23.40;64.00;;;;;;4989531;28;20113;-64
2022/08/05 01:59:19;;;;;;;4.47;2.75;;;23.30;64.10;;;;;;4989667;28;20060;-65
2022/08/05 02:01:48;;;;;;;6.82;2.88;;;23.40;64.30;;;;;;4990123;28;20049;-61
2022/08/05 02:04:17;;;;;;;4.32;2.83;;;23.30;64.20;;;;;;4992338;28;20062;-62
2022/08/05 02:06:43;;;;;;;4.55;2.70;;;23.30;64.10;;;;;;4989666;28;20504;-63
2022/08/05 02:09:08;;;;;;;4.13;2.80;;;23.20;64.00;;;;;;4992958;28;20382;-63
2022/08/05 02:11:49;;;;;;;9.50;2.97;;;23.20;64.00;;;;;;4994630;28;20042;-63
2022/08/05 02:14:25;;;;;;;3.15;2.92;;;23.20;64.30;;;;;;4997504;28;20042;-63
2022/08/05 02:16:53;;;;;;;3.30;3.00;;;23.10;63.90;;;;;;4991394;28;20034;-64
2022/08/05 02:19:27;;;;;;;3.58;2.70;;;23.00;63.40;;;;;;4994448;28;20034;-63
2022/08/05 02:22:00;;;;;;;6.97;2.60;;;22.90;63.60;;;;;;4990041;28;20038;-63
2022/08/05 02:24:36;;;;;;;5.13;2.78;;;22.90;64.50;;;;;;4996024;28;20026;-63
2022/08/05 02:27:05;;;;;;;3.47;2.40;;;22.90;64.80;;;;;;4992345;28;20521;-63
2022/08/05 02:29:34;;;;;;;2.70;2.50;;;22.80;64.60;;;;;;4993929;28;20034;-64
2022/08/05 02:32:00;;;;;;;4.60;2.63;;;22.90;64.80;;;;;;4991721;28;20544;-64
2022/08/05 02:34:30;;;;;;;3.80;2.60;;;22.80;64.60;;;;;;4993199;28;20038;-64
2022/08/05 02:37:02;;;;;;;5.05;2.80;;;22.90;64.90;;;;;;4988695;28;20247;-63
2022/08/05 02:39:33;;;;;;;2.88;2.67;;;22.90;64.50;;;;;;4987365;28;20030;-60
2022/08/05 02:42:00;;;;;;;3.35;2.60;;;22.90;64.30;;;;;;4990255;28;20054;-64
2022/08/05 02:44:28;;;;;;;4.72;2.90;;;22.90;64.60;;;;;;4991854;28;20800;-64
2022/08/05 02:46:55;;;;;;;3.20;2.88;;;22.90;64.80;;;;;;4989468;28;20064;-64
2022/08/05 02:49:22;;;;;;;4.50;2.90;;;22.90;64.80;;;;;;4992467;28;20026;-64
2022/08/05 02:51:49;;;;;;;3.38;2.90;;;22.90;64.90;;;;;;4990936;28;20038;-64
2022/08/05 02:54:16;;;;;;;3.03;2.83;;;22.90;64.70;;;;;;4987516;28;20034;-63
2022/08/05 02:56:42;;;;;;;3.92;3.40;;;22.90;64.70;;;;;;4986892;28;20034;-63
2022/08/05 02:59:10;;;;;;;3.70;2.85;;;22.90;65.00;;;;;;4990960;28;20038;-63
2022/08/05 03:01:39;;;;;;;3.47;3.10;;;22.90;65.00;;;;;;4993892;28;20498;-63
2022/08/05 03:04:08;;;;;;;3.33;3.00;;;22.80;65.20;;;;;;4998279;28;20129;-64
2022/08/05 03:06:34;;;;;;;6.63;2.92;;;22.90;65.30;;;;;;4993749;28;20105;-63
2022/08/05 03:09:00;;;;;;;4.45;3.03;;;22.90;65.20;;;;;;4995744;28;20053;-63
2022/08/05 03:11:27;;;;;;;3.58;2.80;;;22.90;64.80;;;;;;4994432;28;20042;-63
2022/08/05 03:13:53;;;;;;;2.95;2.75;;;22.80;64.40;;;;;;4996105;28;20503;-64
2022/08/05 03:16:20;;;;;;;4.43;2.90;;;22.90;65.10;;;;;;4991310;28;20057;-63
2022/08/05 03:18:46;;;;;;;3.42;2.92;;;22.90;63.90;;;;;;4990609;28;20470;-63
2022/08/05 03:21:12;;;;;;;2.95;2.60;;;22.90;63.80;;;;;;4987761;28;20054;-63
2022/08/05 03:23:40;;;;;;;2.67;2.47;;;23.00;63.50;;;;;;4985702;28;20129;-63
2022/08/05 03:26:05;;;;;;;4.10;2.40;;;23.10;62.80;;;;;;4990531;28;20042;-63
2022/08/05 03:28:31;;;;;;;2.58;2.38;;;23.20;62.20;;;;;;4990191;28;20036;-64
2022/08/05 03:30:59;;;;;;;2.75;2.55;;;23.20;61.70;;;;;;4986290;28;20398;-63
2022/08/05 03:33:27;;;;;;;2.85;2.42;;;23.40;61.20;;;;;;4993009;28;20062;-63
2022/08/05 03:35:57;;;;;;;2.60;2.40;;;23.50;60.80;;;;;;4990112;28;20041;-63
2022/08/05 03:38:24;;;;;;;2.60;2.40;;;23.60;60.50;;;;;;4990675;28;20081;-64
2022/08/05 03:40:52;;;;;;;2.30;2.10;;;23.70;60.10;;;;;;4986305;28;20350;-63
2022/08/05 03:43:19;;;;;;;2.92;2.58;;;23.80;59.70;;;;;;4990112;28;20042;-63
2022/08/05 03:45:45;;;;;;;2.60;2.40;;;23.90;59.30;;;;;;4983645;28;20038;-64
2022/08/05 03:48:11;;;;;;;3.83;1.92;;;24.00;58.90;;;;;;4977570;28;20046;-63
2022/08/05 03:50:39;;;;;;;3.72;2.00;;;24.10;58.50;;;;;;5003761;28;20057;-63
2022/08/05 03:53:11;;;;;;;2.55;2.22;;;24.20;58.10;;;;;;5003090;28;20030;-63
2022/08/05 03:55:41;;;;;;;1.90;1.80;;;24.30;57.90;;;;;;5005245;28;20030;-63
2022/08/05 03:58:11;;;;;;;8.57;2.20;;;24.40;57.50;;;;;;5008670;28;20034;-61
2022/08/05 04:00:38;;;;;;;2.30;2.10;;;24.50;57.00;;;;;;5006092;28;20053;-63
2022/08/05 04:03:05;;;;;;;2.60;2.40;;;24.70;57.00;;;;;;5009080;28;20465;-64
2022/08/05 04:05:34;;;;;;;3.60;2.20;;;24.80;56.60;;;;;;5009100;28;20049;-65
2022/08/05 04:08:06;;;;;;;2.25;2.00;;;24.90;56.10;;;;;;5009685;28;20038;-63
2022/08/05 04:10:33;;;;;;;3.30;2.13;;;25.00;55.70;;;;;;5002937;28;20031;-63
2022/08/05 04:12:59;;;;;;;3.20;2.20;;;25.10;55.70;;;;;;5007640;28;20768;-63
2022/08/05 04:15:26;;;;;;;2.85;1.98;;;25.20;55.30;;;;;;5006535;28;20042;-63
2022/08/05 04:17:53;;;;;;;3.78;2.20;;;25.30;55.10;;;;;;5007349;28;20037;-63
2022/08/05 04:20:22;;;;;;;3.80;2.20;;;25.40;54.70;;;;;;5013124;28;20121;-63
2022/08/05 04:22:48;;;;;;;1.92;1.83;;;25.40;54.60;;;;;;5009450;28;20041;-63
2022/08/05 04:25:14;;;;;;;2.05;1.95;;;25.40;54.50;;;;;;5004915;28;20580;-63
2022/08/05 04:27:40;;;;;;;2.10;2.00;;;25.50;54.40;;;;;;5006296;28;20037;-60
2022/08/05 04:30:07;;;;;;;2.30;1.83;;;25.50;54.40;;;;;;4998632;28;20041;-63
2022/08/05 04:32:33;;;;;;;2.28;2.17;;;25.50;54.00;;;;;;4994189;28;20033;-63
2022/08/05 04:34:59;;;;;;;2.20;2.00;;;25.50;53.90;;;;;;5006587;28;20086;-61
2022/08/05 04:37:24;;;;;;;2.72;2.10;;;25.50;54.60;;;;;;5000374;28;20382;-62
2022/08/05 04:39:50;;;;;;;2.03;1.83;;;25.40;53.80;;;;;;5004198;28;20036;-62
2022/08/05 04:42:15;;;;;;;2.10;1.92;;;25.40;53.80;;;;;;5009320;28;20037;-64
2022/08/05 04:44:41;;;;;;;3.22;2.05;;;25.40;54.00;;;;;;5004819;28;20129;-63
2022/08/05 04:47:07;;;;;;;2.50;2.00;;;25.30;54.00;;;;;;5008354;28;20375;-63
2022/08/05 04:49:33;;;;;;;3.05;2.28;;;25.30;53.90;;;;;;5009136;28;20042;-63
2022/08/05 04:51:59;;;;;;;1.80;1.70;;;25.20;54.10;;;;;;5007879;28;20038;-62
2022/08/05 04:54:27;;;;;;;2.22;2.03;;;25.20;54.20;;;;;;5009007;28;20095;-63
2022/08/05 04:56:53;;;;;;;4.22;2.00;;;25.10;54.00;;;;;;5007363;28;20091;-64
2022/08/05 04:59:21;;;;;;;2.58;2.38;;;25.20;54.30;;;;;;5007869;28;20052;-63
2022/08/05 05:01:47;;;;;;;2.00;1.90;;;25.10;54.20;;;;;;5008903;28;20048;-62
2022/08/05 05:04:12;;;;;;;1.80;1.70;;;25.10;54.30;;;;;;5007049;28;20880;-63
2022/08/05 05:06:38;;;;;;;2.20;2.10;;;25.00;54.80;;;;;;5006328;28;20561;-63
2022/08/05 05:09:04;;;;;;;3.45;2.13;;;25.10;54.40;;;;;;5003539;28;20058;-62
2022/08/05 05:11:29;;;;;;;2.30;2.10;;;25.10;54.30;;;;;;4982615;28;20129;-63
2022/08/05 05:13:55;;;;;;;3.50;2.10;;;25.00;54.40;;;;;;4987248;28;20046;-63
2022/08/05 05:16:20;;;;;;;1.98;1.73;;;25.00;54.40;;;;;;4987811;28;20105;-63
2022/08/05 05:18:46;;;;;;;2.70;1.88;;;25.00;54.40;;;;;;4988782;28;20410;-64
2022/08/05 05:21:11;;;;;;;3.05;1.80;;;25.00;54.60;;;;;;4986694;28;20050;-63
2022/08/05 05:23:37;;;;;;;2.10;1.90;;;25.00;54.60;;;;;;4989196;28;20097;-62
2022/08/05 05:26:03;;;;;;;2.85;2.00;;;25.00;54.50;;;;;;4984587;28;20038;-64
2022/08/05 05:28:29;;;;;;;2.25;2.05;;;25.00;54.70;;;;;;4987063;28;20042;-64
2022/08/05 05:30:54;;;;;;;1.98;1.88;;;25.00;55.00;;;;;;4989501;28;20120;-62
2022/08/05 05:33:20;;;;;;;11.13;2.50;;;25.00;55.00;;;;;;4985928;28;20045;-64
2022/08/05 05:35:46;;;;;;;3.28;1.75;;;25.00;55.40;;;;;;4981236;28;20113;-64
2022/08/05 05:38:12;;;;;;;2.67;1.95;;;25.10;55.40;;;;;;4986236;28;20526;-63
2022/08/05 05:40:38;;;;;;;1.90;1.80;;;25.10;55.10;;;;;;4987641;28;20421;-64
2022/08/05 05:43:04;;;;;;;2.53;2.33;;;25.10;55.00;;;;;;4984087;28;20041;-65
2022/08/05 05:45:29;;;;;;;4.80;1.92;;;25.10;55.00;;;;;;4986150;28;20544;-62
2022/08/05 05:47:58;;;;;;;4.85;2.00;;;25.10;54.90;;;;;;4989219;28;20406;-65
2022/08/05 05:50:24;;;;;;;4.40;2.17;;;25.20;55.00;;;;;;4987645;28;20045;-63
2022/08/05 05:52:49;;;;;;;8.80;2.65;;;25.20;54.80;;;;;;4986928;28;20405;-64
2022/08/05 05:55:16;;;;;;;5.78;2.50;;;25.20;54.90;;;;;;4985231;28;20502;-63
2022/08/05 05:57:44;;;;;;;8.15;2.08;;;25.20;54.90;;;;;;4985685;28;20034;-63
2022/08/05 06:00:12;;;;;;;4.10;2.13;;;25.30;54.80;;;;;;4986928;28;20093;-64
2022/08/05 06:02:39;;;;;;;4.85;2.17;;;25.20;54.80;;;;;;4986629;28;20030;-63
2022/08/05 06:05:09;;;;;;;5.47;1.98;;;25.20;55.00;;;;;;4984249;28;20042;-62
2022/08/05 06:07:35;;;;;;;6.45;2.40;;;25.20;55.40;;;;;;4988429;28;20030;-63
2022/08/05 06:10:01;;;;;;;2.42;1.80;;;25.20;55.50;;;;;;4989122;28;20413;-64
2022/08/05 06:12:26;;;;;;;5.22;2.22;;;25.10;55.40;;;;;;4981696;28;20034;-65
2022/08/05 06:14:52;;;;;;;2.67;2.30;;;25.10;55.60;;;;;;4989025;28;20050;-61
2022/08/05 06:17:18;;;;;;;4.03;2.05;;;25.10;55.70;;;;;;4989779;28;20073;-62
2022/08/05 06:19:44;;;;;;;4.15;1.88;;;25.10;55.90;;;;;;4991303;28;21272;-63
2022/08/05 06:22:10;;;;;;;5.40;2.00;;;25.10;55.90;;;;;;4990369;28;20037;-63
2022/08/05 06:24:39;;;;;;;3.70;1.88;;;25.10;56.10;;;;;;4992205;28;20041;-63
2022/08/05 06:27:05;;;;;;;3.38;2.13;;;25.10;56.40;;;;;;4991110;28;20361;-64
2022/08/05 06:29:31;;;;;;;3.78;2.20;;;25.00;56.40;;;;;;4990534;28;21208;-64
2022/08/05 06:31:56;;;;;;;3.05;2.05;;;25.00;56.60;;;;;;4990872;28;20061;-61
2022/08/05 06:34:22;;;;;;;2.90;2.05;;;25.00;56.60;;;;;;4987660;28;20041;-61
2022/08/05 06:36:48;;;;;;;2.95;2.00;;;25.10;56.60;;;;;;4990949;28;20086;-64
2022/08/05 06:39:14;;;;;;;4.22;2.47;;;25.10;56.60;;;;;;4991570;28;20065;-63
2022/08/05 06:41:39;;;;;;;3.63;2.00;;;25.10;56.60;;;;;;4990690;28;20715;-63
2022/08/05 06:44:05;;;;;;;3.15;1.95;;;25.10;56.70;;;;;;4989447;28;20041;-63
2022/08/05 06:46:30;;;;;;;4.32;2.08;;;25.20;56.70;;;;;;4988909;28;20048;-63
2022/08/05 06:48:57;;;;;;;3.70;2.25;;;25.30;56.60;;;;;;4992442;28;20079;-63
2022/08/05 06:51:23;;;;;;;3.97;2.33;;;25.30;56.70;;;;;;4990497;28;20043;-64
2022/08/05 06:53:49;;;;;;;10.52;2.17;;;25.40;56.70;;;;;;4992507;28;20144;-63
2022/08/05 06:56:14;;;;;;;4.90;1.92;;;25.40;56.50;;;;;;4987630;28;20133;-63
2022/08/05 06:58:40;;;;;;;2.05;1.85;;;25.40;56.50;;;;;;4986843;28;20048;-63
2022/08/05 07:01:06;;;;;;;2.60;2.03;;;25.50;56.60;;;;;;4994899;28;20505;-62
2022/08/05 07:03:32;;;;;;;5.22;2.35;;;25.50;56.40;;;;;;4980358;28;20069;-63
2022/08/05 07:05:58;;;;;;;2.30;2.10;;;25.50;56.40;;;;;;4987824;28;20041;-63
2022/08/05 07:08:24;;;;;;;2.60;2.40;;;25.60;56.70;;;;;;4988808;28;20052;-63
2022/08/05 07:10:50;;;;;;;4.95;2.22;;;25.60;56.40;;;;;;4986509;28;20041;-64
2022/08/05 07:18:45;;;;;;;4.40;2.28;;;25.80;56.80;;;;;;4987645;28;20048;-63
2022/08/05 07:21:11;;;;;;;11.20;2.45;;;25.80;56.60;;;;;;4988231;28;20034;-63
2022/08/05 07:23:37;;;;;;;9.45;2.50;;;25.90;56.60;;;;;;4989923;28;20537;-65
2022/08/05 07:26:03;;;;;;;2.40;2.05;;;26.00;56.70;;;;;;4988456;28;20038;-64
2022/08/05 07:28:29;;;;;;;4.28;2.35;;;26.10;56.50;;;;;;4988296;28;20041;-64
2022/08/05 07:30:54;;;;;;;3.97;2.47;;;26.20;56.30;;;;;;4990412;28;20406;-63
2022/08/05 07:33:20;;;;;;;4.47;2.40;;;26.30;56.30;;;;;;4983113;28;20215;-61
2022/08/05 07:35:46;;;;;;;3.38;2.40;;;26.50;56.00;;;;;;4987865;28;20042;-64
2022/08/05 07:38:13;;;;;;;7.63;2.70;;;26.50;55.80;;;;;;4986842;28;20658;-63
2022/08/05 07:40:39;;;;;;;2.42;2.15;;;26.60;55.50;;;;;;4987792;28;20395;-65
2022/08/05 07:43:05;;;;;;;6.53;2.42;;;26.70;55.60;;;;;;4988854;28;20122;-63
2022/08/05 07:45:31;;;;;;;2.53;2.05;;;26.80;55.00;;;;;;4985425;28;20173;-63
2022/08/05 07:47:57;;;;;;;6.47;2.30;;;26.80;55.00;;;;;;4989961;28;20061;-64
2022/08/05 07:50:23;;;;;;;2.08;1.80;;;26.90;54.60;;;;;;4988362;28;20038;-65
2022/08/05 07:52:49;;;;;;;4.82;2.03;;;27.00;54.50;;;;;;4987724;28;20466;-63
2022/08/05 07:55:15;;;;;;;5.82;1.83;;;27.00;53.80;;;;;;4992842;28;20086;-63
2022/08/05 07:57:41;;;;;;;5.88;1.75;;;27.10;53.60;;;;;;5011322;28;20061;-63
2022/08/05 08:00:07;;;;;;;6.20;1.77;;;27.10;54.00;;;;;;5007520;28;20037;-64
2022/08/05 08:02:33;;;;;;;3.40;1.75;;;27.20;53.80;;;;;;5000419;28;20420;-63
2022/08/05 08:04:59;;;;;;;2.97;1.40;;;27.30;53.00;;;;;;5006551;28;20041;-63
2022/08/05 08:07:25;;;;;;;2.80;1.35;;;27.30;53.20;;;;;;5008810;28;20039;-63
2022/08/05 08:09:51;;;;;;;2.58;1.27;;;27.40;52.40;;;;;;5010210;28;20121;-62
2022/08/05 08:12:17;;;;;;;1.77;1.30;;;27.50;52.50;;;;;;5004203;28;20044;-64
2022/08/05 08:14:43;;;;;;;2.78;1.48;;;27.50;51.90;;;;;;5009085;28;20033;-63
2022/08/05 08:17:09;;;;;;;1.30;1.23;;;27.60;50.60;;;;;;5006774;28;20071;-63
2022/08/05 08:19:39;;;;;;;2.10;1.20;;;27.60;50.50;;;;;;5007922;28;20511;-63
2022/08/05 08:22:06;;;;;;;1.45;1.20;;;27.70;50.10;;;;;;5007544;28;20107;-63
2022/08/05 08:24:33;;;;;;;1.38;1.27;;;27.70;50.30;;;;;;5008060;28;20048;-65
2022/08/05 08:27:01;;;;;;;1.88;1.10;;;27.80;50.10;;;;;;5007644;28;20191;-62
2022/08/05 08:29:26;;;;;;;2.10;1.40;;;27.80;49.80;;;;;;5006811;28;20182;-64
2022/08/05 08:31:52;;;;;;;1.45;1.13;;;27.80;49.80;;;;;;5006673;28;21222;-65
2022/08/05 08:34:19;;;;;;;1.40;1.30;;;27.90;50.10;;;;;;5003514;28;20038;-66
2022/08/05 08:36:45;;;;;;;1.60;1.20;;;28.00;50.60;;;;;;5003963;28;20073;-63
2022/08/05 08:39:11;;;;;;;1.30;1.20;;;28.00;50.30;;;;;;5002189;28;20109;-63
2022/08/05 08:41:39;;;;;;;2.78;1.30;;;28.10;50.00;;;;;;5001967;28;20038;-64
2022/08/05 08:44:07;;;;;;;1.20;1.10;;;28.20;49.60;;;;;;5008535;28;20073;-64
2022/08/05 08:46:33;;;;;;;1.40;1.15;;;28.20;50.10;;;;;;5003339;28;20213;-62
2022/08/05 08:49:01;;;;;;;2.70;1.20;;;28.30;50.20;;;;;;5007649;28;20037;-62
2022/08/05 08:51:31;;;;;;;1.13;0.95;;;28.40;49.90;;;;;;5007092;28;20038;-63
2022/08/05 08:53:57;;;;;;;1.25;1.15;;;28.50;49.80;;;;;;5007544;28;20165;-64
2022/08/05 08:56:23;;;;;;;1.00;1.00;;;28.60;49.00;;;;;;5008098;28;20079;-64
2022/08/05 08:58:50;;;;;;;1.10;1.00;;;28.70;48.50;;;;;;5007569;28;20046;-64
2022/08/05 09:01:17;;;;;;;2.35;1.08;;;28.70;47.90;;;;;;5006696;28;20071;-63
2022/08/05 09:03:48;;;;;;;1.67;0.90;;;28.80;47.40;;;;;;5005806;28;20038;-64
2022/08/05 09:06:14;;;;;;;2.75;1.00;;;28.90;47.50;;;;;;5011373;28;20030;-64
2022/08/05 09:08:39;;;;;;;0.80;0.80;;;29.00;47.60;;;;;;5009648;28;20587;-64
2022/08/05 09:11:06;;;;;;;2.15;1.00;;;29.10;47.70;;;;;;5004665;28;20038;-64
2022/08/05 09:13:33;;;;;;;1.38;0.90;;;29.20;45.60;;;;;;5008330;28;20045;-63
2022/08/05 09:15:59;;;;;;;1.42;0.90;;;29.20;45.50;;;;;;5010627;28;20506;-65
2022/08/05 09:18:25;;;;;;;1.95;1.08;;;29.30;46.10;;;;;;5011801;28;20444;-64
2022/08/05 09:20:51;;;;;;;0.85;0.85;;;29.30;46.10;;;;;;5008116;28;20034;-63
2022/08/05 09:23:22;;;;;;;2.00;1.08;;;29.40;45.50;;;;;;5010527;28;20527;-64
2022/08/05 09:26:04;;;;;;;4.15;1.15;;;29.40;45.20;;;;;;5007428;28;20420;-65
2022/08/05 09:28:31;;;;;;;1.23;0.85;;;29.50;46.00;;;;;;5008992;28;20030;-62
2022/08/05 09:31:07;;;;;;;1.60;1.15;;;29.60;45.80;;;;;;5007612;28;20042;-63
2022/08/05 09:34:00;;;;;;;3.25;1.00;;;29.70;45.20;;;;;;5004280;28;20037;-63
2022/08/05 09:36:41;;;;;;;2.00;1.20;;;29.70;43.70;;;;;;4988563;28;20042;-62
2022/08/05 09:39:09;;;;;;;1.77;1.13;;;29.80;44.70;;;;;;4985811;28;20038;-63
2022/08/05 09:42:00;;;;;;;1.73;1.10;;;29.80;44.60;;;;;;4984007;28;20435;-63
2022/08/05 09:44:33;;;;;;;1.98;0.90;;;29.80;43.80;;;;;;4986189;28;20046;-64
2022/08/05 09:47:16;;;;;;;3.22;1.38;;;29.80;44.80;;;;;;4986839;28;20038;-63
2022/08/05 09:49:47;;;;;;;1.33;1.08;;;29.80;45.10;;;;;;4985367;28;20045;-64
2022/08/05 09:52:33;;;;;;;1.73;1.45;;;29.80;45.20;;;;;;4993889;28;20101;-63
2022/08/05 09:55:08;;;;;;;3.65;1.25;;;29.90;44.10;;;;;;4992188;28;20041;-64
2022/08/05 09:57:46;;;;;;;4.60;1.30;;;30.00;44.00;;;;;;4987752;28;20046;-63
2022/08/05 10:00:13;;;;;;;1.67;1.20;;;30.00;44.90;;;;;;4986526;28;20046;-63
2022/08/05 10:02:47;;;;;;;2.25;1.17;;;30.00;45.00;;;;;;4984325;28;20045;-63
2022/08/05 10:05:18;;;;;;;1.10;1.00;;;30.10;44.70;;;;;;4982225;28;20605;-66
2022/08/05 10:07:50;;;;;;;1.67;1.10;;;30.10;45.00;;;;;;4995906;28;20038;-63
2022/08/05 10:10:20;;;;;;;6.55;1.38;;;30.20;44.80;;;;;;4990605;28;20066;-63
2022/08/05 10:12:47;;;;;;;1.45;1.30;;;30.30;45.20;;;;;;4982088;28;20035;-61
2022/08/05 10:15:25;;;;;;;1.75;1.30;;;30.30;44.30;;;;;;4990345;28;20042;-64
2022/08/05 10:18:13;;;;;;;1.45;1.30;;;30.40;44.20;;;;;;4988665;28;20042;-62
2022/08/05 10:20:50;;;;;;;2.95;1.30;;;30.50;44.30;;;;;;4990398;28;20066;-64
2022/08/05 10:23:31;;;;;;;3.83;1.42;;;30.60;43.90;;;;;;4988084;28;20045;-61
2022/08/05 10:25:58;;;;;;;2.20;1.30;;;30.60;43.40;;;;;;4992928;28;20495;-63
2022/08/05 10:28:24;;;;;;;1.20;1.10;;;30.70;44.20;;;;;;4980074;28;20353;-65
2022/08/05 10:30:52;;;;;;;2.30;1.20;;;30.70;44.30;;;;;;4987860;28;20406;-65
2022/08/05 10:33:19;;;;;;;2.63;1.10;;;30.70;44.00;;;;;;4990109;28;21348;-66
2022/08/05 10:35:44;;;;;;;1.48;1.38;;;30.70;44.10;;;;;;4988514;28;20520;-64
2022/08/05 10:38:12;;;;;;;2.30;1.35;;;30.70;44.00;;;;;;4994705;28;20049;-64
2022/08/05 10:41:16;;;;;;;1.92;1.40;;;30.80;43.80;;;;;;4988612;28;20165;-66
2022/08/05 10:43:44;;;;;;;2.15;1.50;;;30.80;44.20;;;;;;4985546;28;20080;-66
2022/08/05 10:46:13;;;;;;;1.45;1.33;;;30.80;43.80;;;;;;4983016;28;20093;-63
2022/08/05 10:48:40;;;;;;;1.35;1.20;;;30.80;43.90;;;;;;4992336;28;20218;-65
2022/08/05 10:51:13;;;;;;;1.38;1.27;;;30.80;43.60;;;;;;4987067;28;20097;-63
2022/08/05 10:53:51;;;;;;;1.92;1.23;;;30.80;43.60;;;;;;4990766;28;20048;-65
2022/08/05 10:56:19;;;;;;;1.50;1.40;;;30.80;43.50;;;;;;4991334;28;20034;-63
2022/08/05 10:58:53;;;;;;;1.73;1.15;;;30.80;44.00;;;;;;4993461;28;20049;-63
2022/08/05 11:01:34;;;;;;;2.23;1.30;;;30.80;43.90;;;;;;4988102;28;20073;-63
2022/08/05 11:04:22;;;;;;;5.82;1.35;;;30.80;43.20;;;;;;4988815;28;20077;-63
2022/08/05 11:06:57;;;;;;;2.38;1.10;;;30.80;43.40;;;;;;4988685;28;20034;-63
2022/08/05 11:09:42;;;;;;;3.45;1.40;;;30.90;43.70;;;;;;4993169;28;20057;-65
2022/08/05 11:12:41;;;;;;;1.63;1.52;;;30.90;44.40;;;;;;4990197;28;20070;-65
2022/08/05 11:15:15;;;;;;;2.47;1.30;;;30.90;44.30;;;;;;4991850;28;20527;-64
2022/08/05 11:17:44;;;;;;;;;;;31.00;43.70;;;;;;4992236;28;20046;-63
2022/08/05 11:20:33;;;;;;;2.65;1.60;;;31.00;44.60;;;;;;4990225;28;20403;-63
2022/08/05 11:22:59;;;;;;;2.22;1.63;;;31.00;43.70;;;;;;4989889;28;21258;-65
2022/08/05 11:25:42;;;;;;;2.67;1.30;;;31.00;43.70;;;;;;4990644;28;20607;-63
2022/08/05 11:28:11;;;;;;;5.47;1.92;;;31.00;43.50;;;;;;5007038;28;20043;-63
2022/08/05 11:30:55;;;;;;;3.28;1.40;;;31.10;43.70;;;;;;5008619;28;20267;-65
2022/08/05 11:33:29;;;;;;;1.63;1.50;;;31.10;44.00;;;;;;5008133;28;20095;-63
2022/08/05 11:35:56;;;;;;;1.50;1.40;;;31.20;43.70;;;;;;5007957;28;20100;-64
2022/08/05 11:38:53;;;;;;;2.85;1.30;;;31.20;43.90;;;;;;5008622;28;20034;-65
2022/08/05 11:41:30;;;;;;;2.08;1.30;;;31.20;44.20;;;;;;5000285;28;20068;-65
2022/08/05 11:43:57;;;;;;;3.75;1.10;;;31.30;44.30;;;;;;5009862;28;20041;-65
2022/08/05 11:46:29;;;;;;;1.83;1.40;;;31.30;44.00;;;;;;5008844;28;20056;-63
2022/08/05 11:48:56;;;;;;;1.58;1.13;;;31.30;42.90;;;;;;5008211;28;20034;-64
2022/08/05 11:51:23;;;;;;;1.52;1.42;;;31.40;42.60;;;;;;5008590;28;20033;-64
2022/08/05 11:53:49;;;;;;;3.95;1.23;;;31.40;43.00;;;;;;5004654;28;20034;-63
2022/08/05 11:56:15;;;;;;;1.33;1.23;;;31.50;43.00;;;;;;5004528;28;20372;-62
2022/08/05 11:58:43;;;;;;;1.42;1.15;;;31.50;42.30;;;;;;5005331;28;20050;-63
2022/08/05 12:01:16;;;;;;;1.33;0.85;;;31.50;41.80;;;;;;5006576;28;20041;-64
2022/08/05 12:03:42;;;;;;;2.15;1.00;;;31.60;41.40;;;;;;5006593;28;20090;-66
2022/08/05 12:06:10;;;;;;;1.10;1.10;;;31.60;41.10;;;;;;5007210;28;20026;-65
2022/08/05 12:08:44;;;;;;;1.75;1.00;;;31.70;41.20;;;;;;5007471;28;20120;-64
2022/08/05 12:11:16;;;;;;;1.77;1.10;;;31.70;40.60;;;;;;5001865;28;20291;-64
2022/08/05 12:13:58;;;;;;;1.20;1.10;;;31.70;41.00;;;;;;5007672;28;20497;-64
2022/08/05 12:16:26;;;;;;;2.08;1.30;;;31.60;40.60;;;;;;5006738;28;20096;-65
2022/08/05 12:18:52;;;;;;;1.80;1.13;;;31.70;41.30;;;;;;5007985;28;20120;-64
2022/08/05 12:21:27;;;;;;;2.83;1.20;;;31.70;41.70;;;;;;5007618;28;20684;-64
2022/08/05 12:24:03;;;;;;;1.33;1.17;;;31.70;41.70;;;;;;5006668;28;20057;-64
2022/08/05 12:26:37;;;;;;;3.08;1.27;;;31.70;41.80;;;;;;5006595;28;20036;-64
2022/08/05 12:29:08;;;;;;;3.08;1.20;;;31.70;42.00;;;;;;5005576;28;20445;-64
2022/08/05 12:31:34;;;;;;;1.58;1.48;;;31.60;42.70;;;;;;5007768;28;20413;-66
2022/08/05 12:34:06;;;;;;;3.17;1.40;;;31.60;41.90;;;;;;5004994;28;20034;-64
2022/08/05 12:36:32;;;;;;;1.58;1.20;;;31.70;41.70;;;;;;5006438;28;20442;-63
2022/08/05 12:38:58;;;;;;;1.60;1.50;;;31.70;41.90;;;;;;5006485;28;20531;-63
2022/08/05 12:41:30;;;;;;;1.30;1.15;;;31.70;41.90;;;;;;5010275;28;20061;-64
2022/08/05 12:43:58;;;;;;;1.40;1.13;;;31.70;41.90;;;;;;5004158;28;20050;-63
2022/08/05 12:46:29;;;;;;;2.03;1.30;;;31.70;41.90;;;;;;5007785;28;20057;-65
2022/08/05 12:48:58;;;;;;;1.42;1.33;;;31.70;41.70;;;;;;5007616;28;20095;-64
2022/08/05 12:51:26;;;;;;;1.80;1.05;;;31.80;41.70;;;;;;5007447;28;20034;-65
2022/08/05 12:53:59;;;;;;;1.30;1.20;;;31.80;42.10;;;;;;5005774;28;20041;-64
2022/08/05 12:56:24;;;;;;;1.52;1.42;;;31.90;41.50;;;;;;5006942;28;20630;-64
2022/08/05 12:59:13;;;;;;;1.33;1.23;;;31.90;41.70;;;;;;5012145;28;20049;-63
2022/08/05 13:01:40;;;;;;;1.38;1.25;;;31.90;42.20;;;;;;5012687;28;20112;-64
2022/08/05 13:04:06;;;;;;;2.65;1.30;;;31.90;41.80;;;;;;5007823;28;20065;-63